createdAt,value
2023-02-26T00:01:30.657Z,99.90
2023-02-26T00:04:00.142Z,99.90
2023-02-26T00:06:28.693Z,99.90
2023-02-26T00:08:56.654Z,99.90
2023-02-26T00:11:24.252Z,99.90
2023-02-26T00:13:51.867Z,99.90
2023-02-26T00:16:32.249Z,99.90
2023-02-26T00:19:02.275Z,99.90
2023-02-26T00:21:30.857Z,99.90
2023-02-26T00:23:58.478Z,99.90
2023-02-26T00:26:27.441Z,99.90
2023-02-26T00:28:55.991Z,99.90
2023-02-26T00:31:26.900Z,99.90
2023-02-26T00:33:55.655Z,99.90
2023-02-26T00:36:35.126Z,99.90
2023-02-26T00:39:24.443Z,99.90
2023-02-26T00:41:51.897Z,99.90
2023-02-26T00:44:19.435Z,99.90
2023-02-26T00:47:06.433Z,99.90
2023-02-26T00:50:11.742Z,99.90
2023-02-26T00:52:47.664Z,99.90
2023-02-26T00:55:15.605Z,99.90
2023-02-26T00:57:42.927Z,99.90
2023-02-26T01:00:11.023Z,99.90
2023-02-26T01:02:39.827Z,99.90
2023-02-26T01:05:08.256Z,99.90
2023-02-26T01:07:56.914Z,99.90
2023-02-26T01:10:24.891Z,99.90
2023-02-26T01:12:53.064Z,99.90
2023-02-26T01:15:20.719Z,99.90
2023-02-26T01:18:01.099Z,99.90
2023-02-26T01:20:38.463Z,99.90
2023-02-26T01:23:18.260Z,99.90
2023-02-26T01:25:51.554Z,99.90
2023-02-26T01:28:19.435Z,99.90
2023-02-26T01:30:47.635Z,99.90
2023-02-26T01:33:23.861Z,99.90
2023-02-26T01:35:54.329Z,99.90
2023-02-26T01:38:32.524Z,99.90
2023-02-26T01:41:38.749Z,99.90
2023-02-26T01:44:23.921Z,99.90
2023-02-26T01:47:10.070Z,99.90
2023-02-26T01:49:38.436Z,99.90
2023-02-26T01:52:08.087Z,99.90
2023-02-26T01:54:38.244Z,99.90
2023-02-26T01:57:05.509Z,99.90
2023-02-26T01:59:37.058Z,99.90
2023-02-26T02:02:08.224Z,99.90
2023-02-26T02:04:37.640Z,99.90
2023-02-26T02:07:06.370Z,99.90
2023-02-26T02:09:34.666Z,99.90
2023-02-26T02:12:16.852Z,99.90
2023-02-26T02:14:51.627Z,99.90
2023-02-26T02:17:34.197Z,99.90
2023-02-26T02:20:10.081Z,99.90
2023-02-26T02:23:03.378Z,99.90
2023-02-26T02:25:49.965Z,99.90
2023-02-26T02:28:44.433Z,99.90
2023-02-26T02:31:20.943Z,99.90
2023-02-26T02:34:09.655Z,99.90
2023-02-26T02:36:44.407Z,99.90
2023-02-26T02:39:22.258Z,99.90
2023-02-26T02:41:56.626Z,99.90
2023-02-26T02:44:27.267Z,99.90
2023-02-26T02:46:58.255Z,99.90
2023-02-26T02:49:34.151Z,99.90
2023-02-26T02:52:17.872Z,99.90
2023-02-26T02:54:51.559Z,99.90
2023-02-26T02:57:23.216Z,99.90
2023-02-26T02:59:55.976Z,99.90
2023-02-26T03:02:31.913Z,99.90
2023-02-26T03:04:59.729Z,99.90
2023-02-26T03:07:27.037Z,99.90
2023-02-26T03:09:55.145Z,99.90
2023-02-26T03:12:22.435Z,99.90
2023-02-26T03:14:50.774Z,99.90
2023-02-26T03:17:29.904Z,99.90
2023-02-26T03:20:11.275Z,99.90
2023-02-26T03:22:48.995Z,99.90
2023-02-26T03:25:45.411Z,99.90
2023-02-26T03:28:36.701Z,99.90
2023-02-26T03:31:22.058Z,99.90
2023-02-26T03:34:03.024Z,99.90
2023-02-26T03:36:47.338Z,99.90
2023-02-26T03:39:26.857Z,99.90
2023-02-26T03:42:00.303Z,99.90
2023-02-26T03:44:47.109Z,99.90
2023-02-26T03:47:15.931Z,99.90
2023-02-26T03:49:58.309Z,99.90
2023-02-26T03:52:30.261Z,99.90
2023-02-26T03:55:22.177Z,99.90
2023-02-26T03:57:57.218Z,99.90
2023-02-26T04:00:57.166Z,99.90
2023-02-26T04:03:47.722Z,99.90
2023-02-26T04:06:15.110Z,99.90
2023-02-26T04:08:43.123Z,99.90
2023-02-26T04:11:17.209Z,99.90
2023-02-26T04:13:45.330Z,99.90
2023-02-26T04:16:14.285Z,99.90
2023-02-26T04:18:42.497Z,99.90
2023-02-26T04:21:19.629Z,99.90
2023-02-26T04:23:48.015Z,99.90
2023-02-26T04:26:15.611Z,99.90
2023-02-26T04:28:44.319Z,99.90
2023-02-26T04:31:12.404Z,99.90
2023-02-26T04:33:40.730Z,99.90
2023-02-26T04:36:08.958Z,99.90
2023-02-26T04:38:36.613Z,99.90
2023-02-26T04:41:05.372Z,99.90
2023-02-26T04:43:33.054Z,99.90
2023-02-26T04:46:15.242Z,99.90
2023-02-26T04:48:42.819Z,99.90
2023-02-26T04:51:10.314Z,99.90
2023-02-26T04:53:37.617Z,99.90
2023-02-26T04:56:05.251Z,99.90
2023-02-26T04:58:32.518Z,99.90
2023-02-26T05:01:05.802Z,99.90
2023-02-26T05:03:33.381Z,99.90
2023-02-26T05:06:00.712Z,99.90
2023-02-26T05:08:28.100Z,99.90
2023-02-26T05:10:55.367Z,99.90
2023-02-26T05:13:22.588Z,99.90
2023-02-26T05:15:49.869Z,99.90
2023-02-26T05:18:17.201Z,99.90
2023-02-26T05:20:44.456Z,99.90
2023-02-26T05:23:11.787Z,99.90
2023-02-26T05:25:39.786Z,99.90
2023-02-26T05:28:07.122Z,99.90
2023-02-26T05:30:34.528Z,99.90
2023-02-26T05:33:02.023Z,99.90
2023-02-26T05:35:29.291Z,99.90
2023-02-26T05:37:56.533Z,99.90
2023-02-26T05:40:24.385Z,99.90
2023-02-26T05:42:51.987Z,99.90
2023-02-26T05:45:19.362Z,99.90
2023-02-26T05:47:46.678Z,99.90
2023-02-26T05:50:14.018Z,99.90
2023-02-26T05:52:41.284Z,99.90
2023-02-26T05:55:09.563Z,99.90
2023-02-26T05:57:36.830Z,99.90
2023-02-26T06:00:06.469Z,99.90
2023-02-26T06:02:40.363Z,99.90
2023-02-26T06:05:08.601Z,99.90
2023-02-26T06:07:35.893Z,99.90
2023-02-26T06:10:03.792Z,99.90
2023-02-26T06:12:31.036Z,99.90
2023-02-26T06:14:58.279Z,99.90
2023-02-26T06:17:25.659Z,99.90
2023-02-26T06:19:52.979Z,99.90
2023-02-26T06:22:20.250Z,99.90
2023-02-26T06:24:47.499Z,99.90
2023-02-26T06:27:14.798Z,99.90
2023-02-26T06:29:42.678Z,99.90
2023-02-26T06:32:10.065Z,99.90
2023-02-26T06:34:37.369Z,99.90
2023-02-26T06:37:04.795Z,99.90
2023-02-26T06:39:32.641Z,99.90
2023-02-26T06:42:00.009Z,99.90
2023-02-26T06:44:27.283Z,99.90
2023-02-26T06:46:54.535Z,99.90
2023-02-26T06:49:21.923Z,99.90
2023-02-26T06:51:49.237Z,99.90
2023-02-26T06:54:16.623Z,99.90
2023-02-26T06:56:43.950Z,99.90
2023-02-26T06:59:11.329Z,99.90
2023-02-26T07:01:39.141Z,99.90
2023-02-26T07:04:06.390Z,99.90
2023-02-26T07:06:33.650Z,99.90
2023-02-26T07:09:01.278Z,99.90
2023-02-26T07:11:28.587Z,99.90
2023-02-26T07:13:55.905Z,99.90
2023-02-26T07:16:23.288Z,99.90
2023-02-26T07:18:50.676Z,99.90
2023-02-26T07:21:17.987Z,99.90
2023-02-26T07:23:45.287Z,99.90
2023-02-26T07:26:12.607Z,99.90
2023-02-26T07:28:39.892Z,99.90
2023-02-26T07:31:07.302Z,99.90
2023-02-26T07:33:35.179Z,99.90
2023-02-26T07:36:02.465Z,99.90
2023-02-26T07:38:29.702Z,99.90
2023-02-26T07:40:57.122Z,99.90
2023-02-26T07:43:24.834Z,99.90
2023-02-26T07:45:52.770Z,99.90
2023-02-26T07:48:20.734Z,99.90
2023-02-26T07:50:47.984Z,99.90
2023-02-26T07:53:15.382Z,99.90
2023-02-26T07:55:42.942Z,99.90
2023-02-26T07:58:10.236Z,99.90
2023-02-26T08:00:37.516Z,99.90
2023-02-26T08:03:04.809Z,99.90
2023-02-26T08:05:32.082Z,99.90
2023-02-26T08:08:01.964Z,99.90
2023-02-26T08:10:30.378Z,99.90
2023-02-26T08:12:57.596Z,99.90
2023-02-26T08:15:25.046Z,99.90
2023-02-26T08:17:53.617Z,99.90
2023-02-26T08:20:21.252Z,99.90
2023-02-26T08:22:52.111Z,99.90
2023-02-26T08:25:20.273Z,98.70
2023-02-26T08:27:47.592Z,99.80
2023-02-26T08:30:15.071Z,93.80
2023-02-26T08:32:42.727Z,94.80
2023-02-26T08:35:10.785Z,90.70
2023-02-26T08:37:38.742Z,86.60
2023-02-26T08:40:07.981Z,82.90
2023-02-26T08:42:35.575Z,77.80
2023-02-26T08:45:03.390Z,75.10
2023-02-26T08:47:31.416Z,68.20
2023-02-26T08:49:59.805Z,66.00
2023-02-26T08:52:27.188Z,62.40
2023-02-26T08:54:54.412Z,61.70
2023-02-26T08:57:21.761Z,59.00
2023-02-26T08:59:49.071Z,56.30
2023-02-26T09:02:16.395Z,54.30
2023-02-26T09:04:43.651Z,54.40
2023-02-26T09:07:10.910Z,52.00
2023-02-26T09:09:38.136Z,50.70
2023-02-26T09:12:05.763Z,49.70
2023-02-26T09:14:33.037Z,49.30
2023-02-26T09:17:00.275Z,48.50
2023-02-26T09:19:27.997Z,48.70
2023-02-26T09:21:55.932Z,46.50
2023-02-26T09:24:23.322Z,47.10
2023-02-26T09:26:50.759Z,45.00
2023-02-26T09:29:18.262Z,44.70
2023-02-26T09:31:45.650Z,43.20
2023-02-26T09:34:13.728Z,40.60
2023-02-26T09:36:41.440Z,39.30
2023-02-26T09:39:08.785Z,39.30
2023-02-26T09:41:44.614Z,38.70
2023-02-26T09:44:33.650Z,39.30
2023-02-26T09:47:08.208Z,38.10
2023-02-26T09:49:53.623Z,38.00
2023-02-26T09:52:29.589Z,37.50
2023-02-26T09:55:01.263Z,36.30
2023-02-26T09:57:33.347Z,37.10
2023-02-26T10:00:01.685Z,36.30
2023-02-26T10:03:14.867Z,36.20
2023-02-26T10:06:04.040Z,34.90
2023-02-26T10:08:41.434Z,33.40
2023-02-26T10:11:19.123Z,31.20
2023-02-26T10:13:57.909Z,30.70
2023-02-26T10:16:31.530Z,33.20
2023-02-26T10:19:11.336Z,35.40
2023-02-26T10:21:51.044Z,33.40
2023-02-26T10:24:42.699Z,35.20
2023-02-26T10:27:18.736Z,36.40
2023-02-26T10:30:08.609Z,33.20
2023-02-26T10:32:58.233Z,32.30
2023-02-26T10:35:29.668Z,31.60
2023-02-26T10:38:08.816Z,30.00
2023-02-26T10:41:02.405Z,28.30
2023-02-26T10:43:41.989Z,27.50
2023-02-26T10:46:18.771Z,28.00
2023-02-26T10:49:02.727Z,31.30
2023-02-26T10:51:37.637Z,33.50
2023-02-26T10:54:33.835Z,32.80
2023-02-26T10:57:01.634Z,36.40
2023-02-26T10:59:29.064Z,40.90
2023-02-26T11:01:57.814Z,42.70
2023-02-26T11:04:28.343Z,46.40
2023-02-26T11:06:59.629Z,49.60
2023-02-26T11:09:34.108Z,59.00
2023-02-26T11:12:07.129Z,59.00
2023-02-26T11:14:35.111Z,63.60
2023-02-26T11:17:07.774Z,74.00
2023-02-26T11:20:09.528Z,72.80
2023-02-26T11:22:38.038Z,65.20
2023-02-26T11:25:06.648Z,59.70
2023-02-26T11:27:39.352Z,57.60
2023-02-26T11:30:19.386Z,54.30
2023-02-26T11:32:52.533Z,55.20
2023-02-26T11:35:24.313Z,55.50
2023-02-26T11:37:58.877Z,55.30
2023-02-26T11:40:32.537Z,52.70
2023-02-26T11:43:06.260Z,52.10
2023-02-26T11:45:54.689Z,50.70
2023-02-26T11:48:44.425Z,49.90
2023-02-26T11:51:16.505Z,53.00
2023-02-26T11:53:52.187Z,53.50
2023-02-26T11:56:39.271Z,57.00
2023-02-26T11:59:16.699Z,57.00
2023-02-26T12:01:44.178Z,53.90
2023-02-26T12:04:13.779Z,54.70
2023-02-26T12:06:42.166Z,55.40
2023-02-26T12:09:13.471Z,56.20
2023-02-26T12:12:18.016Z,56.40
2023-02-26T12:15:17.161Z,52.80
2023-02-26T12:17:44.560Z,51.60
2023-02-26T12:20:17.531Z,55.30
2023-02-26T12:23:19.080Z,57.20
2023-02-26T12:26:01.573Z,58.00
2023-02-26T12:29:05.828Z,53.90
2023-02-26T12:31:39.559Z,53.60
2023-02-26T12:34:28.858Z,53.10
2023-02-26T12:37:15.149Z,52.30
2023-02-26T12:40:20.604Z,52.30
2023-02-26T12:43:07.092Z,52.30
2023-02-26T12:46:09.983Z,53.70
2023-02-26T12:49:04.887Z,53.90
2023-02-26T12:52:22.419Z,53.80
2023-02-26T12:55:03.271Z,53.70
2023-02-26T12:57:30.617Z,48.70
2023-02-26T13:00:05.192Z,49.90
2023-02-26T13:02:32.493Z,51.00
2023-02-26T13:05:19.388Z,52.80
2023-02-26T13:07:56.871Z,53.40
2023-02-26T13:10:58.577Z,51.90
2023-02-26T13:13:29.044Z,47.90
2023-02-26T13:16:21.747Z,50.10
2023-02-26T13:19:01.096Z,50.60
2023-02-26T13:21:39.138Z,50.40
2023-02-26T13:24:24.756Z,50.10
2023-02-26T13:26:54.277Z,49.30
2023-02-26T13:29:27.514Z,49.70
2023-02-26T13:32:01.790Z,48.40
2023-02-26T13:34:45.356Z,50.60
2023-02-26T13:37:33.113Z,51.10
2023-02-26T13:40:39.273Z,50.40
2023-02-26T13:43:31.308Z,51.80
2023-02-26T13:46:26.373Z,50.40
2023-02-26T13:49:12.299Z,49.20
2023-02-26T13:51:42.615Z,51.30
2023-02-26T13:54:35.196Z,50.50
2023-02-26T13:57:26.204Z,49.10
2023-02-26T14:00:00.407Z,49.20
2023-02-26T14:02:55.910Z,49.00
2023-02-26T14:06:06.594Z,47.10
2023-02-26T14:08:39.154Z,47.10
2023-02-26T14:11:37.836Z,46.50
2023-02-26T14:14:26.268Z,49.30
2023-02-26T14:17:18.606Z,49.30
2023-02-26T14:20:20.110Z,48.90
2023-02-26T14:22:51.891Z,48.90
2023-02-26T14:25:22.773Z,48.60
2023-02-26T14:27:50.729Z,50.10
2023-02-26T14:30:34.554Z,50.40
2023-02-26T14:33:04.961Z,49.70
2023-02-26T14:35:44.689Z,48.00
2023-02-26T14:38:32.449Z,47.40
2023-02-26T14:41:18.710Z,49.70
2023-02-26T14:44:13.384Z,50.10
2023-02-26T14:46:42.058Z,51.40
2023-02-26T14:49:43.420Z,49.20
2023-02-26T14:52:28.720Z,49.80
2023-02-26T14:55:22.855Z,51.10
2023-02-26T14:57:58.809Z,52.10
2023-02-26T15:00:38.549Z,52.50
2023-02-26T15:03:54.037Z,53.70
2023-02-26T15:06:46.989Z,54.80
2023-02-26T15:09:30.118Z,54.30
2023-02-26T15:12:08.456Z,53.60
2023-02-26T15:14:47.654Z,52.00
2023-02-26T15:17:39.194Z,49.70
2023-02-26T15:20:11.488Z,49.70
2023-02-26T15:23:15.537Z,49.60
2023-02-26T15:25:44.854Z,49.60
2023-02-26T15:28:23.786Z,49.70
2023-02-26T15:30:51.795Z,52.30
2023-02-26T15:33:21.261Z,51.90
2023-02-26T15:35:50.374Z,53.00
2023-02-26T15:38:18.733Z,53.20
2023-02-26T15:40:46.814Z,55.10
2023-02-26T15:43:23.045Z,54.30
2023-02-26T15:45:54.180Z,53.70
2023-02-26T15:48:37.961Z,54.20
2023-02-26T15:51:08.426Z,53.60
2023-02-26T15:53:43.524Z,55.40
2023-02-26T15:56:24.486Z,55.60
2023-02-26T15:59:03.907Z,55.60
2023-02-26T16:01:31.849Z,56.30
2023-02-26T16:04:05.997Z,57.00
2023-02-26T16:06:43.128Z,57.90
2023-02-26T16:09:20.578Z,57.50
2023-02-26T16:11:49.764Z,57.80
2023-02-26T16:14:22.622Z,58.80
2023-02-26T16:16:52.832Z,60.90
2023-02-26T16:19:42.643Z,60.00
2023-02-26T16:22:33.803Z,60.70
2023-02-26T16:25:25.205Z,60.90
2023-02-26T16:28:21.012Z,62.20
2023-02-26T16:30:54.156Z,64.20
2023-02-26T16:33:24.289Z,65.50
2023-02-26T16:36:03.778Z,67.00
2023-02-26T16:39:07.040Z,67.30
2023-02-26T16:41:36.906Z,69.10
2023-02-26T16:44:36.358Z,70.70
2023-02-26T16:47:04.824Z,69.90
2023-02-26T16:49:34.805Z,74.80
2023-02-26T16:52:03.367Z,75.40
2023-02-26T16:54:36.613Z,73.90
2023-02-26T16:57:08.653Z,75.60
2023-02-26T16:59:38.486Z,77.80
2023-02-26T17:02:22.067Z,74.60
2023-02-26T17:04:57.773Z,72.30
2023-02-26T17:07:28.148Z,70.60
2023-02-26T17:10:20.619Z,71.90
2023-02-26T17:13:03.991Z,72.40
2023-02-26T17:15:35.835Z,73.80
2023-02-26T17:18:03.356Z,72.80
2023-02-26T17:20:31.613Z,72.50
2023-02-26T17:23:00.550Z,73.60
2023-02-26T17:25:34.432Z,74.80
2023-02-26T17:28:02.156Z,78.90
2023-02-26T17:30:33.559Z,80.10
2023-02-26T17:33:03.966Z,82.70
2023-02-26T17:35:31.422Z,83.40
2023-02-26T17:38:00.483Z,85.80
2023-02-26T17:40:33.603Z,88.00
2023-02-26T17:43:00.912Z,90.10
2023-02-26T17:45:28.160Z,91.80
2023-02-26T17:47:55.586Z,92.80
2023-02-26T17:50:44.430Z,93.40
2023-02-26T17:53:11.820Z,95.20
2023-02-26T17:55:39.765Z,95.80
2023-02-26T17:58:13.379Z,95.90
2023-02-26T18:00:42.816Z,96.70
2023-02-26T18:03:10.541Z,96.80
2023-02-26T18:05:39.287Z,96.60
2023-02-26T18:08:07.686Z,96.30
2023-02-26T18:10:35.597Z,96.00
2023-02-26T18:13:03.568Z,96.70
2023-02-26T18:15:30.916Z,96.60
2023-02-26T18:17:58.858Z,97.20
2023-02-26T18:20:27.262Z,98.30
2023-02-26T18:22:54.580Z,97.90
2023-02-26T18:25:22.062Z,99.00
2023-02-26T18:27:54.539Z,99.90
2023-02-26T18:30:25.600Z,99.90
2023-02-26T18:32:53.029Z,99.90
2023-02-26T18:35:20.573Z,99.90
2023-02-26T18:37:48.025Z,99.90
2023-02-26T18:40:19.059Z,99.90
2023-02-26T18:42:47.642Z,99.90
2023-02-26T18:45:15.541Z,99.90
2023-02-26T18:47:43.220Z,99.90
2023-02-26T18:50:19.298Z,99.90
2023-02-26T18:52:46.745Z,99.90
2023-02-26T18:55:14.615Z,99.90
2023-02-26T18:57:43.041Z,99.90
2023-02-26T19:00:15.680Z,99.90
2023-02-26T19:02:44.483Z,99.90
2023-02-26T19:05:13.264Z,99.90
2023-02-26T19:07:42.525Z,99.90
2023-02-26T19:10:13.368Z,99.90
2023-02-26T19:12:41.038Z,99.90
2023-02-26T19:15:09.773Z,99.90
2023-02-26T19:17:37.023Z,99.90
2023-02-26T19:20:04.990Z,99.90
2023-02-26T19:22:32.374Z,99.90
2023-02-26T19:24:59.728Z,99.90
2023-02-26T19:27:27.108Z,99.90
2023-02-26T19:29:54.393Z,99.90
2023-02-26T19:32:21.853Z,99.90
2023-02-26T19:34:49.279Z,99.90
2023-02-26T19:37:16.492Z,99.90
2023-02-26T19:39:43.826Z,99.90
2023-02-26T19:42:11.338Z,99.90
2023-02-26T19:44:38.623Z,99.90
2023-02-26T19:47:06.822Z,99.90
2023-02-26T19:49:34.447Z,99.90
2023-02-26T19:52:01.881Z,99.90
2023-02-26T19:54:29.251Z,99.90
2023-02-26T19:56:56.621Z,99.90
2023-02-26T19:59:23.909Z,99.90
2023-02-26T20:01:51.685Z,99.90
2023-02-26T20:04:19.241Z,99.90
2023-02-26T20:06:46.589Z,99.90
2023-02-26T20:09:14.563Z,99.90
2023-02-26T20:11:41.984Z,99.90
2023-02-26T20:14:09.495Z,99.90
2023-02-26T20:16:36.908Z,99.90
2023-02-26T20:19:04.289Z,99.90
2023-02-26T20:21:31.547Z,99.90
2023-02-26T20:23:58.802Z,99.90
2023-02-26T20:26:26.238Z,99.90
2023-02-26T20:28:53.575Z,99.90
2023-02-26T20:31:21.074Z,99.90
2023-02-26T20:33:48.339Z,99.90
2023-02-26T20:36:17.408Z,99.90
2023-02-26T20:38:44.782Z,99.90
2023-02-26T20:41:12.024Z,99.90
2023-02-26T20:43:39.347Z,99.90
2023-02-26T20:46:06.802Z,99.90
2023-02-26T20:48:36.828Z,99.90
2023-02-26T20:51:06.181Z,99.90
2023-02-26T20:53:34.085Z,99.90
2023-02-26T20:56:01.520Z,99.90
2023-02-26T20:58:28.836Z,99.90
2023-02-26T21:00:57.120Z,99.90
2023-02-26T21:03:25.028Z,99.90
2023-02-26T21:05:52.701Z,99.90
2023-02-26T21:08:20.335Z,99.90
2023-02-26T21:10:50.415Z,99.90
2023-02-26T21:13:18.351Z,99.90
2023-02-26T21:15:45.726Z,99.90
2023-02-26T21:18:13.174Z,99.90
2023-02-26T21:20:40.541Z,99.90
2023-02-26T21:23:08.121Z,99.90
2023-02-26T21:25:36.265Z,99.90
2023-02-26T21:28:03.738Z,99.90
2023-02-26T21:30:31.134Z,99.90
2023-02-26T21:32:58.415Z,99.90
2023-02-26T21:35:25.931Z,99.90
2023-02-26T21:37:54.186Z,99.90
2023-02-26T21:40:22.636Z,99.90
2023-02-26T21:42:50.325Z,99.90
2023-02-26T21:45:17.810Z,99.90
2023-02-26T21:47:45.092Z,99.90
2023-02-26T21:50:12.415Z,99.90
2023-02-26T21:52:39.821Z,99.90
2023-02-26T21:55:07.368Z,99.90
2023-02-26T21:57:34.743Z,99.90
2023-02-26T22:00:02.111Z,99.90
2023-02-26T22:02:39.761Z,99.90
2023-02-26T22:05:07.317Z,99.90
2023-02-26T22:07:34.645Z,99.90
2023-02-26T22:10:01.922Z,99.90
2023-02-26T22:12:29.417Z,99.90
2023-02-26T22:14:56.803Z,99.90
2023-02-26T22:17:24.548Z,99.90
2023-02-26T22:19:52.121Z,99.90
2023-02-26T22:22:19.430Z,99.90
2023-02-26T22:24:46.784Z,99.90
2023-02-26T22:27:14.315Z,99.90
2023-02-26T22:29:41.768Z,99.90
2023-02-26T22:32:09.132Z,99.90
2023-02-26T22:34:36.829Z,99.90
2023-02-26T22:37:04.391Z,99.90
2023-02-26T22:39:33.107Z,99.90
2023-02-26T22:42:00.376Z,99.90
2023-02-26T22:44:27.737Z,99.90
2023-02-26T22:46:55.181Z,99.90
2023-02-26T22:49:22.722Z,99.90
2023-02-26T22:51:49.974Z,99.90
2023-02-26T22:54:18.209Z,99.90
2023-02-26T22:56:45.518Z,99.90
2023-02-26T22:59:12.917Z,99.90
2023-02-26T23:01:40.624Z,99.90
2023-02-26T23:04:08.289Z,99.90
2023-02-26T23:06:36.587Z,99.90
2023-02-26T23:09:05.770Z,99.90
2023-02-26T23:11:33.154Z,99.90
2023-02-26T23:14:00.446Z,99.90
2023-02-26T23:16:27.797Z,99.90
2023-02-26T23:18:55.220Z,99.90
2023-02-26T23:21:22.594Z,99.90
2023-02-26T23:23:49.949Z,99.90
2023-02-26T23:26:18.292Z,99.90
2023-02-26T23:28:45.860Z,99.90
2023-02-26T23:31:13.360Z,99.90
2023-02-26T23:33:40.644Z,99.90
2023-02-26T23:36:08.316Z,99.90
2023-02-26T23:38:36.024Z,99.90
2023-02-26T23:41:03.648Z,99.90
2023-02-26T23:43:31.260Z,99.90
2023-02-26T23:45:58.602Z,99.90
2023-02-26T23:48:27.492Z,99.90
2023-02-26T23:50:55.897Z,99.90
2023-02-26T23:53:23.349Z,99.90
2023-02-26T23:55:56.888Z,99.90
2023-02-26T23:58:26.374Z,99.90
